• Join FlightAware (Why Join?)
  • Login
  • US Flag 
09:01PM EDT


 

Airport Tracker/Info


-or-


 

Live Flight TrackerFlight Track Log ✈ UAL5419 ✈ 21-Apr-2013 ✈ KMKE - KORD

Flight Track Log - Related Links

Times and Time Zones

All times are in EDT time to prevent confusion due to time zone crossing. See the UAL5419 flight status page for this flight to view local times or setup timezone preferences in your user account.

Time Position Orientation Groundspeed Altitude Reporting Facility
EDT Latitude Longitude Course Direction KTS MPH feet Rate Location/Type
02:50PM 42.9333 -87.9000 185° South 149 171 1,500  Level KMKE
02:52PM 42.8833 -87.9833 231° Southwest 258 297 4,500 1,500 Climbing KMKE
02:53PM 42.6788 -87.8998 182° South  Level Estimated
02:53PM 42.8500 -88.0500 236° Southwest 250 288 5,000  Level KMKE
02:54PM 42.5896 -87.9082 184° South  Level FlightAware Approximate
02:54PM 42.8000 -88.1333 231° Southwest 254 292 5,000  Level KMKE
02:55PM 42.5003 -87.9080 185° South  Level Estimated
02:55PM 42.7472 -88.2083 226° Southwest 251 289 5,500  Level Chicago Center
02:56PM 42.6989 -88.2769 226° Southwest 250 288 6,100 1,200 Climbing Chicago Center
02:57PM 42.6336 -88.2836 184° South 256 295 8,000 960 Climbing Chicago Center
02:58PM 42.5447 -88.2669 172° South 274 315 8,100  Climbing Chicago Center
02:59PM 42.4706 -88.2511 171° South 269 310 8,100  Level Chicago Center
03:00PM 42.4064 -88.2742 195° South 245 282 8,100 -480 Level Chicago Center
03:01PM 42.3511 -88.3011 200° South 227 261 7,200 -540 Descending Chicago Center
03:02PM 42.2886 -88.2714 161° South 229 264 7,000 -120 Descending Chicago Center
03:03PM 42.2361 -88.2153 142° Southeast 235 270 7,000 -660 Level Chicago Center
03:04PM 42.1872 -88.1556 138° Southeast 237 273 5,700 -1,200 Descending Chicago Center
03:05PM 42.1344 -88.0983 141° Southeast 204 235 4,600 -1,020 Descending Chicago Center
03:06PM 42.0997 -88.0583 139° Southeast 180 207 3,600 -960 Descending Chicago Center
03:07PM 42.0833 -88.0333 131° Southeast 159 183 3,200 -840 Descending Chicago TRACON